sensor_id;sensor_type;location;lat;lon;timestamp;temperature;humidity
3334;DHT22;1679;50.392;8.008;2022-11-15T00:00:54;8.50;99.90
3334;DHT22;1679;50.392;8.008;2022-11-15T00:03:24;8.50;99.90
3334;DHT22;1679;50.392;8.008;2022-11-15T00:05:50;8.50;99.90
3334;DHT22;1679;50.392;8.008;2022-11-15T00:08:15;8.50;99.90
3334;DHT22;1679;50.392;8.008;2022-11-15T00:10:41;8.60;99.90
3334;DHT22;1679;50.392;8.008;2022-11-15T00:13:08;8.50;99.90
3334;DHT22;1679;50.392;8.008;2022-11-15T00:15:38;8.50;99.90
3334;DHT22;1679;50.392;8.008;2022-11-15T00:18:04;8.40;99.90
3334;DHT22;1679;50.392;8.008;2022-11-15T00:20:31;8.30;99.90
3334;DHT22;1679;50.392;8.008;2022-11-15T00:22:58;8.30;99.90
3334;DHT22;1679;50.392;8.008;2022-11-15T00:25:23;8.20;99.90
3334;DHT22;1679;50.392;8.008;2022-11-15T00:27:49;8.20;99.90
3334;DHT22;1679;50.392;8.008;2022-11-15T00:30:17;8.10;99.90
3334;DHT22;1679;50.392;8.008;2022-11-15T00:32:42;8.10;99.90
3334;DHT22;1679;50.392;8.008;2022-11-15T00:35:08;8.00;99.90
3334;DHT22;1679;50.392;8.008;2022-11-15T00:37:33;8.10;99.90
3334;DHT22;1679;50.392;8.008;2022-11-15T00:39:59;8.10;99.90
3334;DHT22;1679;50.392;8.008;2022-11-15T00:42:24;8.20;99.90
3334;DHT22;1679;50.392;8.008;2022-11-15T00:44:50;8.30;99.90
3334;DHT22;1679;50.392;8.008;2022-11-15T00:47:15;8.40;99.90
3334;DHT22;1679;50.392;8.008;2022-11-15T00:49:41;8.50;99.90
3334;DHT22;1679;50.392;8.008;2022-11-15T00:52:07;8.60;99.90
3334;DHT22;1679;50.392;8.008;2022-11-15T00:54:32;8.70;99.90
3334;DHT22;1679;50.392;8.008;2022-11-15T00:56:58;8.60;99.90
3334;DHT22;1679;50.392;8.008;2022-11-15T00:59:23;8.70;99.90
3334;DHT22;1679;50.392;8.008;2022-11-15T01:01:49;8.70;99.90
3334;DHT22;1679;50.392;8.008;2022-11-15T01:04:14;8.80;99.90
3334;DHT22;1679;50.392;8.008;2022-11-15T01:06:40;8.80;99.90
3334;DHT22;1679;50.392;8.008;2022-11-15T01:09:05;8.80;99.90
3334;DHT22;1679;50.392;8.008;2022-11-15T01:11:31;8.80;99.90
3334;DHT22;1679;50.392;8.008;2022-11-15T01:13:56;8.80;99.90
3334;DHT22;1679;50.392;8.008;2022-11-15T01:16:22;8.80;99.90
3334;DHT22;1679;50.392;8.008;2022-11-15T01:18:47;8.80;99.90
3334;DHT22;1679;50.392;8.008;2022-11-15T01:21:16;8.70;99.90
3334;DHT22;1679;50.392;8.008;2022-11-15T01:23:42;8.60;99.90
3334;DHT22;1679;50.392;8.008;2022-11-15T01:26:11;8.50;99.90
3334;DHT22;1679;50.392;8.008;2022-11-15T01:28:38;8.50;99.90
3334;DHT22;1679;50.392;8.008;2022-11-15T01:31:16;8.50;99.90
3334;DHT22;1679;50.392;8.008;2022-11-15T01:33:41;8.50;99.90
3334;DHT22;1679;50.392;8.008;2022-11-15T01:36:13;8.50;99.90
3334;DHT22;1679;50.392;8.008;2022-11-15T01:38:38;8.50;99.90
3334;DHT22;1679;50.392;8.008;2022-11-15T01:41:04;8.60;99.90
3334;DHT22;1679;50.392;8.008;2022-11-15T01:43:35;8.70;99.90
3334;DHT22;1679;50.392;8.008;2022-11-15T01:46:30;8.60;99.90
3334;DHT22;1679;50.392;8.008;2022-11-15T01:49:02;8.60;99.90
3334;DHT22;1679;50.392;8.008;2022-11-15T01:51:31;8.60;99.90
3334;DHT22;1679;50.392;8.008;2022-11-15T01:54:10;8.60;99.90
3334;DHT22;1679;50.392;8.008;2022-11-15T01:56:43;8.50;99.90
3334;DHT22;1679;50.392;8.008;2022-11-15T01:59:10;8.70;99.90
3334;DHT22;1679;50.392;8.008;2022-11-15T02:01:37;8.80;99.90
3334;DHT22;1679;50.392;8.008;2022-11-15T02:04:11;8.80;99.90
3334;DHT22;1679;50.392;8.008;2022-11-15T02:06:38;8.80;99.90
3334;DHT22;1679;50.392;8.008;2022-11-15T02:09:04;8.90;99.90
3334;DHT22;1679;50.392;8.008;2022-11-15T02:11:29;8.90;99.90
3334;DHT22;1679;50.392;8.008;2022-11-15T02:13:56;8.90;99.90
3334;DHT22;1679;50.392;8.008;2022-11-15T02:16:43;8.90;99.90
3334;DHT22;1679;50.392;8.008;2022-11-15T02:27:53;8.70;99.90
3334;DHT22;1679;50.392;8.008;2022-11-15T02:35:59;9.00;99.90
3334;DHT22;1679;50.392;8.008;2022-11-15T02:39:04;9.10;99.90
3334;DHT22;1679;50.392;8.008;2022-11-15T02:41:42;9.10;99.90
3334;DHT22;1679;50.392;8.008;2022-11-15T02:44:25;9.10;99.90
3334;DHT22;1679;50.392;8.008;2022-11-15T02:46:57;9.20;99.90
3334;DHT22;1679;50.392;8.008;2022-11-15T02:49:41;9.20;99.90
3334;DHT22;1679;50.392;8.008;2022-11-15T02:52:08;9.20;99.90
3334;DHT22;1679;50.392;8.008;2022-11-15T02:54:34;9.20;99.90
3334;DHT22;1679;50.392;8.008;2022-11-15T02:57:12;9.20;99.90
3334;DHT22;1679;50.392;8.008;2022-11-15T03:08:34;9.20;99.90
3334;DHT22;1679;50.392;8.008;2022-11-15T03:11:14;9.20;99.90
3334;DHT22;1679;50.392;8.008;2022-11-15T03:14:02;9.20;99.90
3334;DHT22;1679;50.392;8.008;2022-11-15T03:16:57;9.20;99.90
3334;DHT22;1679;50.392;8.008;2022-11-15T03:19:49;9.20;99.90
3334;DHT22;1679;50.392;8.008;2022-11-15T03:22:18;9.20;99.90
3334;DHT22;1679;50.392;8.008;2022-11-15T03:24:46;9.20;99.90
3334;DHT22;1679;50.392;8.008;2022-11-15T03:27:15;9.20;99.90
3334;DHT22;1679;50.392;8.008;2022-11-15T03:29:49;9.20;99.90
3334;DHT22;1679;50.392;8.008;2022-11-15T03:32:19;9.20;99.90
3334;DHT22;1679;50.392;8.008;2022-11-15T03:37:36;9.40;99.90
3334;DHT22;1679;50.392;8.008;2022-11-15T03:40:04;9.50;99.90
3334;DHT22;1679;50.392;8.008;2022-11-15T03:42:55;9.40;99.90
3334;DHT22;1679;50.392;8.008;2022-11-15T03:45:39;9.40;99.90
3334;DHT22;1679;50.392;8.008;2022-11-15T03:48:13;9.40;99.90
3334;DHT22;1679;50.392;8.008;2022-11-15T03:50:39;9.30;99.90
3334;DHT22;1679;50.392;8.008;2022-11-15T03:53:06;9.30;99.90
3334;DHT22;1679;50.392;8.008;2022-11-15T03:55:32;9.30;99.90
3334;DHT22;1679;50.392;8.008;2022-11-15T03:57:59;9.20;99.90
3334;DHT22;1679;50.392;8.008;2022-11-15T04:00:26;9.20;99.90
3334;DHT22;1679;50.392;8.008;2022-11-15T04:02:51;9.20;99.90
3334;DHT22;1679;50.392;8.008;2022-11-15T04:05:17;9.20;99.90
3334;DHT22;1679;50.392;8.008;2022-11-15T04:07:43;9.10;99.90
3334;DHT22;1679;50.392;8.008;2022-11-15T04:10:10;9.10;99.90
3334;DHT22;1679;50.392;8.008;2022-11-15T04:12:40;9.10;99.90
3334;DHT22;1679;50.392;8.008;2022-11-15T04:15:11;9.10;99.90
3334;DHT22;1679;50.392;8.008;2022-11-15T04:17:38;9.00;99.90
3334;DHT22;1679;50.392;8.008;2022-11-15T04:20:06;9.00;99.90
3334;DHT22;1679;50.392;8.008;2022-11-15T04:22:55;9.10;99.90
3334;DHT22;1679;50.392;8.008;2022-11-15T04:25:40;9.00;99.90
3334;DHT22;1679;50.392;8.008;2022-11-15T04:28:06;9.00;99.90
3334;DHT22;1679;50.392;8.008;2022-11-15T04:30:31;9.00;99.90
3334;DHT22;1679;50.392;8.008;2022-11-15T04:32:57;9.00;99.90
3334;DHT22;1679;50.392;8.008;2022-11-15T04:35:22;9.00;99.90
3334;DHT22;1679;50.392;8.008;2022-11-15T04:37:48;9.10;99.90
3334;DHT22;1679;50.392;8.008;2022-11-15T04:40:14;9.10;99.90
3334;DHT22;1679;50.392;8.008;2022-11-15T04:42:41;9.20;99.90
3334;DHT22;1679;50.392;8.008;2022-11-15T04:45:08;9.10;99.90
3334;DHT22;1679;50.392;8.008;2022-11-15T04:47:34;9.10;99.90
3334;DHT22;1679;50.392;8.008;2022-11-15T04:49:59;9.00;99.90
3334;DHT22;1679;50.392;8.008;2022-11-15T04:52:25;9.00;99.90
3334;DHT22;1679;50.392;8.008;2022-11-15T04:54:50;9.00;99.90
3334;DHT22;1679;50.392;8.008;2022-11-15T04:57:16;8.90;99.90
3334;DHT22;1679;50.392;8.008;2022-11-15T04:59:41;8.90;99.90
3334;DHT22;1679;50.392;8.008;2022-11-15T05:02:07;8.80;99.90
3334;DHT22;1679;50.392;8.008;2022-11-15T05:04:32;8.80;99.90
3334;DHT22;1679;50.392;8.008;2022-11-15T05:06:58;8.80;99.90
3334;DHT22;1679;50.392;8.008;2022-11-15T05:09:23;8.70;99.90
3334;DHT22;1679;50.392;8.008;2022-11-15T05:11:49;8.70;99.90
3334;DHT22;1679;50.392;8.008;2022-11-15T05:14:15;8.70;99.90
3334;DHT22;1679;50.392;8.008;2022-11-15T05:16:41;8.70;99.90
3334;DHT22;1679;50.392;8.008;2022-11-15T05:19:07;8.70;99.90
3334;DHT22;1679;50.392;8.008;2022-11-15T05:21:33;8.70;99.90
3334;DHT22;1679;50.392;8.008;2022-11-15T05:23:58;8.60;99.90
3334;DHT22;1679;50.392;8.008;2022-11-15T05:26:24;8.60;99.90
3334;DHT22;1679;50.392;8.008;2022-11-15T05:28:54;8.60;99.90
3334;DHT22;1679;50.392;8.008;2022-11-15T05:31:21;8.60;99.90
3334;DHT22;1679;50.392;8.008;2022-11-15T05:33:46;8.50;99.90
3334;DHT22;1679;50.392;8.008;2022-11-15T05:36:31;8.50;99.90
3334;DHT22;1679;50.392;8.008;2022-11-15T05:38:59;8.40;99.90
3334;DHT22;1679;50.392;8.008;2022-11-15T05:41:32;8.30;99.90
3334;DHT22;1679;50.392;8.008;2022-11-15T05:44:00;8.30;99.90
3334;DHT22;1679;50.392;8.008;2022-11-15T05:46:26;8.30;99.90
3334;DHT22;1679;50.392;8.008;2022-11-15T05:48:53;8.20;99.90
3334;DHT22;1679;50.392;8.008;2022-11-15T05:51:21;8.10;99.90
3334;DHT22;1679;50.392;8.008;2022-11-15T05:53:48;8.10;99.90
3334;DHT22;1679;50.392;8.008;2022-11-15T05:56:14;8.10;99.90
3334;DHT22;1679;50.392;8.008;2022-11-15T05:58:40;8.00;99.90
3334;DHT22;1679;50.392;8.008;2022-11-15T06:01:06;8.00;99.90
3334;DHT22;1679;50.392;8.008;2022-11-15T06:03:31;8.00;99.90
3334;DHT22;1679;50.392;8.008;2022-11-15T06:05:57;8.00;99.90
3334;DHT22;1679;50.392;8.008;2022-11-15T06:08:22;7.90;99.90
3334;DHT22;1679;50.392;8.008;2022-11-15T06:10:48;8.00;99.90
3334;DHT22;1679;50.392;8.008;2022-11-15T06:13:13;8.00;99.90
3334;DHT22;1679;50.392;8.008;2022-11-15T06:15:39;8.10;99.90
3334;DHT22;1679;50.392;8.008;2022-11-15T06:18:04;8.10;99.90
3334;DHT22;1679;50.392;8.008;2022-11-15T06:20:30;8.10;99.90
3334;DHT22;1679;50.392;8.008;2022-11-15T06:22:59;8.20;99.90
3334;DHT22;1679;50.392;8.008;2022-11-15T06:25:26;8.30;99.90
3334;DHT22;1679;50.392;8.008;2022-11-15T06:27:53;8.30;99.90
3334;DHT22;1679;50.392;8.008;2022-11-15T06:30:19;8.30;99.90
3334;DHT22;1679;50.392;8.008;2022-11-15T06:32:45;8.30;99.90
3334;DHT22;1679;50.392;8.008;2022-11-15T06:35:11;8.30;99.90
3334;DHT22;1679;50.392;8.008;2022-11-15T06:37:36;8.20;99.90
3334;DHT22;1679;50.392;8.008;2022-11-15T06:40:02;8.20;99.90
3334;DHT22;1679;50.392;8.008;2022-11-15T06:42:28;8.10;99.90
3334;DHT22;1679;50.392;8.008;2022-11-15T06:44:53;8.00;99.90
3334;DHT22;1679;50.392;8.008;2022-11-15T06:47:19;7.90;99.90
3334;DHT22;1679;50.392;8.008;2022-11-15T06:49:44;8.00;99.90
3334;DHT22;1679;50.392;8.008;2022-11-15T06:52:10;8.10;99.90
3334;DHT22;1679;50.392;8.008;2022-11-15T06:54:35;8.20;99.90
3334;DHT22;1679;50.392;8.008;2022-11-15T06:57:01;8.20;99.90
3334;DHT22;1679;50.392;8.008;2022-11-15T06:59:26;8.20;99.90
3334;DHT22;1679;50.392;8.008;2022-11-15T07:01:52;8.30;99.90
3334;DHT22;1679;50.392;8.008;2022-11-15T07:04:17;8.50;99.90
3334;DHT22;1679;50.392;8.008;2022-11-15T07:06:46;8.60;99.90
3334;DHT22;1679;50.392;8.008;2022-11-15T07:09:13;8.80;99.90
3334;DHT22;1679;50.392;8.008;2022-11-15T07:11:38;9.00;99.90
3334;DHT22;1679;50.392;8.008;2022-11-15T07:14:05;9.00;99.90
3334;DHT22;1679;50.392;8.008;2022-11-15T07:16:31;9.10;99.90
3334;DHT22;1679;50.392;8.008;2022-11-15T07:18:56;9.20;99.90
3334;DHT22;1679;50.392;8.008;2022-11-15T07:21:22;9.20;99.90
3334;DHT22;1679;50.392;8.008;2022-11-15T07:23:47;9.30;99.90
3334;DHT22;1679;50.392;8.008;2022-11-15T07:26:13;9.30;99.90
3334;DHT22;1679;50.392;8.008;2022-11-15T07:28:38;9.40;99.90
3334;DHT22;1679;50.392;8.008;2022-11-15T07:31:08;9.40;99.90
3334;DHT22;1679;50.392;8.008;2022-11-15T07:33:34;9.40;99.90
3334;DHT22;1679;50.392;8.008;2022-11-15T07:36:01;9.50;99.90
3334;DHT22;1679;50.392;8.008;2022-11-15T07:38:28;9.60;99.90
3334;DHT22;1679;50.392;8.008;2022-11-15T07:40:58;9.70;99.90
3334;DHT22;1679;50.392;8.008;2022-11-15T07:43:24;9.70;99.90
3334;DHT22;1679;50.392;8.008;2022-11-15T07:45:50;9.70;99.90
3334;DHT22;1679;50.392;8.008;2022-11-15T07:48:15;9.70;99.90
3334;DHT22;1679;50.392;8.008;2022-11-15T07:50:41;9.80;99.90
3334;DHT22;1679;50.392;8.008;2022-11-15T07:53:10;9.80;99.90
3334;DHT22;1679;50.392;8.008;2022-11-15T07:55:36;9.80;99.90
3334;DHT22;1679;50.392;8.008;2022-11-15T07:58:03;9.80;99.90
3334;DHT22;1679;50.392;8.008;2022-11-15T08:00:29;9.80;99.90
3334;DHT22;1679;50.392;8.008;2022-11-15T08:03:06;9.90;99.90
3334;DHT22;1679;50.392;8.008;2022-11-15T08:05:32;9.90;99.90
3334;DHT22;1679;50.392;8.008;2022-11-15T08:07:57;10.00;99.90
3334;DHT22;1679;50.392;8.008;2022-11-15T08:10:24;10.00;99.90
3334;DHT22;1679;50.392;8.008;2022-11-15T08:13:00;10.10;99.90
3334;DHT22;1679;50.392;8.008;2022-11-15T08:15:26;10.20;99.90
3334;DHT22;1679;50.392;8.008;2022-11-15T08:17:56;10.20;99.90
3334;DHT22;1679;50.392;8.008;2022-11-15T08:20:23;10.20;99.90
3334;DHT22;1679;50.392;8.008;2022-11-15T08:22:48;10.30;99.90
3334;DHT22;1679;50.392;8.008;2022-11-15T08:25:14;10.30;99.90
3334;DHT22;1679;50.392;8.008;2022-11-15T08:27:39;10.40;99.90
3334;DHT22;1679;50.392;8.008;2022-11-15T08:30:05;10.40;99.90
3334;DHT22;1679;50.392;8.008;2022-11-15T08:32:32;10.40;99.90
3334;DHT22;1679;50.392;8.008;2022-11-15T08:34:57;10.50;99.90
3334;DHT22;1679;50.392;8.008;2022-11-15T08:37:23;10.70;99.90
3334;DHT22;1679;50.392;8.008;2022-11-15T08:39:48;11.00;99.90
3334;DHT22;1679;50.392;8.008;2022-11-15T08:42:14;11.30;99.90
3334;DHT22;1679;50.392;8.008;2022-11-15T08:44:41;11.40;99.90
3334;DHT22;1679;50.392;8.008;2022-11-15T08:47:07;11.50;99.90
3334;DHT22;1679;50.392;8.008;2022-11-15T08:49:35;11.50;99.90
3334;DHT22;1679;50.392;8.008;2022-11-15T08:52:01;11.50;99.90
3334;DHT22;1679;50.392;8.008;2022-11-15T08:54:26;11.40;99.90
3334;DHT22;1679;50.392;8.008;2022-11-15T08:56:52;11.40;99.90
3334;DHT22;1679;50.392;8.008;2022-11-15T08:59:17;11.20;99.90
3334;DHT22;1679;50.392;8.008;2022-11-15T09:01:43;11.10;99.90
3334;DHT22;1679;50.392;8.008;2022-11-15T09:04:08;11.00;99.90
3334;DHT22;1679;50.392;8.008;2022-11-15T09:06:34;10.90;99.90
3334;DHT22;1679;50.392;8.008;2022-11-15T09:09:01;10.90;99.90
3334;DHT22;1679;50.392;8.008;2022-11-15T09:11:27;10.80;99.90
3334;DHT22;1679;50.392;8.008;2022-11-15T09:13:52;10.80;99.90
3334;DHT22;1679;50.392;8.008;2022-11-15T09:16:18;10.80;99.90
3334;DHT22;1679;50.392;8.008;2022-11-15T09:18:43;10.80;99.90
3334;DHT22;1679;50.392;8.008;2022-11-15T09:21:09;10.80;99.90
3334;DHT22;1679;50.392;8.008;2022-11-15T09:23:35;10.80;99.90
3334;DHT22;1679;50.392;8.008;2022-11-15T09:26:02;10.80;99.90
3334;DHT22;1679;50.392;8.008;2022-11-15T09:28:28;10.80;99.90
3334;DHT22;1679;50.392;8.008;2022-11-15T09:30:59;10.80;99.90
3334;DHT22;1679;50.392;8.008;2022-11-15T09:33:25;10.80;99.90
3334;DHT22;1679;50.392;8.008;2022-11-15T09:35:51;10.80;99.90
3334;DHT22;1679;50.392;8.008;2022-11-15T09:38:17;10.80;99.90
3334;DHT22;1679;50.392;8.008;2022-11-15T09:40:43;10.70;99.90
3334;DHT22;1679;50.392;8.008;2022-11-15T09:43:29;10.80;99.90
3334;DHT22;1679;50.392;8.008;2022-11-15T09:48:55;10.90;99.90
3334;DHT22;1679;50.392;8.008;2022-11-15T09:51:40;10.90;99.90
3334;DHT22;1679;50.392;8.008;2022-11-15T09:56:53;10.90;99.90
3334;DHT22;1679;50.392;8.008;2022-11-15T10:05:04;10.80;99.90
3334;DHT22;1679;50.392;8.008;2022-11-15T10:07:48;10.90;99.90
3334;DHT22;1679;50.392;8.008;2022-11-15T10:13:01;10.90;99.90
3334;DHT22;1679;50.392;8.008;2022-11-15T10:15:27;10.90;99.90
3334;DHT22;1679;50.392;8.008;2022-11-15T10:20:26;10.90;99.90
3334;DHT22;1679;50.392;8.008;2022-11-15T10:22:53;11.00;99.90
3334;DHT22;1679;50.392;8.008;2022-11-15T10:25:26;11.10;99.90
3334;DHT22;1679;50.392;8.008;2022-11-15T10:27:58;11.10;99.90
3334;DHT22;1679;50.392;8.008;2022-11-15T10:30:40;11.10;99.90
3334;DHT22;1679;50.392;8.008;2022-11-15T10:33:34;11.20;99.90
3334;DHT22;1679;50.392;8.008;2022-11-15T10:36:16;11.30;99.90
3334;DHT22;1679;50.392;8.008;2022-11-15T10:44:19;11.50;99.90
3334;DHT22;1679;50.392;8.008;2022-11-15T10:49:27;11.70;99.90
3334;DHT22;1679;50.392;8.008;2022-11-15T10:52:17;11.80;99.90
3334;DHT22;1679;50.392;8.008;2022-11-15T10:57:18;11.80;99.90
3334;DHT22;1679;50.392;8.008;2022-11-15T10:59:57;11.90;99.90
3334;DHT22;1679;50.392;8.008;2022-11-15T11:04:58;11.90;99.90
3334;DHT22;1679;50.392;8.008;2022-11-15T11:07:27;12.00;99.90
3334;DHT22;1679;50.392;8.008;2022-11-15T11:10:05;12.00;99.90
3334;DHT22;1679;50.392;8.008;2022-11-15T11:12:42;12.10;99.90
3334;DHT22;1679;50.392;8.008;2022-11-15T11:15:13;12.20;99.90
3334;DHT22;1679;50.392;8.008;2022-11-15T11:20:23;12.20;99.90
3334;DHT22;1679;50.392;8.008;2022-11-15T11:23:15;12.20;99.90
3334;DHT22;1679;50.392;8.008;2022-11-15T11:28:57;12.20;99.90
3334;DHT22;1679;50.392;8.008;2022-11-15T11:37:17;12.30;99.90
3334;DHT22;1679;50.392;8.008;2022-11-15T11:42:37;12.40;99.90
3334;DHT22;1679;50.392;8.008;2022-11-15T11:47:51;12.40;99.90
3334;DHT22;1679;50.392;8.008;2022-11-15T11:50:21;12.40;99.90
3334;DHT22;1679;50.392;8.008;2022-11-15T11:55:23;12.40;99.90
3334;DHT22;1679;50.392;8.008;2022-11-15T12:00:44;12.40;99.90
3334;DHT22;1679;50.392;8.008;2022-11-15T12:03:18;12.50;99.90
3334;DHT22;1679;50.392;8.008;2022-11-15T12:05:57;12.50;99.90
3334;DHT22;1679;50.392;8.008;2022-11-15T12:08:44;12.50;99.90
3334;DHT22;1679;50.392;8.008;2022-11-15T12:11:17;12.50;99.90
3334;DHT22;1679;50.392;8.008;2022-11-15T12:13:44;12.60;99.90
3334;DHT22;1679;50.392;8.008;2022-11-15T12:16:23;12.60;99.90
3334;DHT22;1679;50.392;8.008;2022-11-15T12:18:52;12.60;99.90
3334;DHT22;1679;50.392;8.008;2022-11-15T12:21:43;12.60;99.90
3334;DHT22;1679;50.392;8.008;2022-11-15T12:24:23;12.70;99.90
3334;DHT22;1679;50.392;8.008;2022-11-15T12:27:20;12.70;99.90
3334;DHT22;1679;50.392;8.008;2022-11-15T12:29:49;12.70;99.90
3334;DHT22;1679;50.392;8.008;2022-11-15T12:34:53;12.80;99.90
3334;DHT22;1679;50.392;8.008;2022-11-15T12:40:18;12.80;99.90
3334;DHT22;1679;50.392;8.008;2022-11-15T12:45:39;12.70;99.90
3334;DHT22;1679;50.392;8.008;2022-11-15T12:58:58;12.70;99.90
3334;DHT22;1679;50.392;8.008;2022-11-15T13:07:00;12.70;99.90
3334;DHT22;1679;50.392;8.008;2022-11-15T13:12:08;12.70;99.90
3334;DHT22;1679;50.392;8.008;2022-11-15T13:19:46;12.80;99.90
3334;DHT22;1679;50.392;8.008;2022-11-15T13:22:11;12.80;99.90
3334;DHT22;1679;50.392;8.008;2022-11-15T13:24:56;12.80;99.90
3334;DHT22;1679;50.392;8.008;2022-11-15T13:27:21;12.80;99.90
3334;DHT22;1679;50.392;8.008;2022-11-15T13:29:48;12.80;99.90
3334;DHT22;1679;50.392;8.008;2022-11-15T13:32:15;12.70;99.90
3334;DHT22;1679;50.392;8.008;2022-11-15T13:34:46;12.80;99.90
3334;DHT22;1679;50.392;8.008;2022-11-15T13:39:48;12.70;99.90
3334;DHT22;1679;50.392;8.008;2022-11-15T13:42:15;12.70;99.90
3334;DHT22;1679;50.392;8.008;2022-11-15T13:44:58;12.70;99.90
3334;DHT22;1679;50.392;8.008;2022-11-15T13:47:28;12.70;99.90
3334;DHT22;1679;50.392;8.008;2022-11-15T13:49:57;12.70;99.90
3334;DHT22;1679;50.392;8.008;2022-11-15T13:52:27;12.60;99.90
3334;DHT22;1679;50.392;8.008;2022-11-15T13:54:59;12.60;99.90
3334;DHT22;1679;50.392;8.008;2022-11-15T13:57:29;12.60;99.90
3334;DHT22;1679;50.392;8.008;2022-11-15T13:59:57;12.50;99.90
3334;DHT22;1679;50.392;8.008;2022-11-15T14:02:31;12.50;99.90
3334;DHT22;1679;50.392;8.008;2022-11-15T14:05:02;12.50;99.90
3334;DHT22;1679;50.392;8.008;2022-11-15T14:07:28;12.50;99.90
3334;DHT22;1679;50.392;8.008;2022-11-15T14:09:54;12.40;99.90
3334;DHT22;1679;50.392;8.008;2022-11-15T14:12:31;12.40;99.90
3334;DHT22;1679;50.392;8.008;2022-11-15T14:14:59;12.40;99.90
3334;DHT22;1679;50.392;8.008;2022-11-15T14:19:53;12.20;99.90
3334;DHT22;1679;50.392;8.008;2022-11-15T14:22:21;12.20;99.90
3334;DHT22;1679;50.392;8.008;2022-11-15T14:25:20;12.20;99.90
3334;DHT22;1679;50.392;8.008;2022-11-15T14:28:12;12.10;99.90
3334;DHT22;1679;50.392;8.008;2022-11-15T14:30:40;12.10;99.90
3334;DHT22;1679;50.392;8.008;2022-11-15T14:33:35;12.10;99.90
3334;DHT22;1679;50.392;8.008;2022-11-15T14:36:11;12.00;99.90
3334;DHT22;1679;50.392;8.008;2022-11-15T14:38:37;12.00;99.90
3334;DHT22;1679;50.392;8.008;2022-11-15T14:41:03;12.00;99.90
3334;DHT22;1679;50.392;8.008;2022-11-15T14:43:28;12.00;99.90
3334;DHT22;1679;50.392;8.008;2022-11-15T14:45:54;12.00;99.90
3334;DHT22;1679;50.392;8.008;2022-11-15T14:48:20;12.00;99.90
3334;DHT22;1679;50.392;8.008;2022-11-15T14:50:45;12.00;99.90
3334;DHT22;1679;50.392;8.008;2022-11-15T14:53:12;12.00;99.90
3334;DHT22;1679;50.392;8.008;2022-11-15T14:55:38;12.00;99.90
3334;DHT22;1679;50.392;8.008;2022-11-15T14:58:05;12.00;99.90
3334;DHT22;1679;50.392;8.008;2022-11-15T15:00:35;12.00;99.90
3334;DHT22;1679;50.392;8.008;2022-11-15T15:03:01;11.90;99.90
3334;DHT22;1679;50.392;8.008;2022-11-15T15:05:39;12.00;99.90
3334;DHT22;1679;50.392;8.008;2022-11-15T15:08:05;12.00;99.90
3334;DHT22;1679;50.392;8.008;2022-11-15T15:10:33;12.00;99.90
3334;DHT22;1679;50.392;8.008;2022-11-15T15:12:59;12.00;99.90
3334;DHT22;1679;50.392;8.008;2022-11-15T15:15:29;11.90;99.90
3334;DHT22;1679;50.392;8.008;2022-11-15T15:17:56;12.00;99.90
3334;DHT22;1679;50.392;8.008;2022-11-15T15:20:22;11.90;99.90
3334;DHT22;1679;50.392;8.008;2022-11-15T15:22:47;11.80;99.90
3334;DHT22;1679;50.392;8.008;2022-11-15T15:25:28;11.70;99.90
3334;DHT22;1679;50.392;8.008;2022-11-15T15:27:56;11.70;99.90
3334;DHT22;1679;50.392;8.008;2022-11-15T15:30:26;11.60;99.90
3334;DHT22;1679;50.392;8.008;2022-11-15T15:32:51;11.60;99.90
3334;DHT22;1679;50.392;8.008;2022-11-15T15:35:18;11.60;99.90
3334;DHT22;1679;50.392;8.008;2022-11-15T15:37:44;11.60;99.90
3334;DHT22;1679;50.392;8.008;2022-11-15T15:40:17;11.50;99.90
3334;DHT22;1679;50.392;8.008;2022-11-15T15:42:43;11.50;99.90
3334;DHT22;1679;50.392;8.008;2022-11-15T15:45:09;11.50;99.90
3334;DHT22;1679;50.392;8.008;2022-11-15T15:47:35;11.40;99.90
3334;DHT22;1679;50.392;8.008;2022-11-15T15:50:01;11.40;99.90
3334;DHT22;1679;50.392;8.008;2022-11-15T15:52:26;11.40;99.90
3334;DHT22;1679;50.392;8.008;2022-11-15T15:54:52;11.30;99.90
3334;DHT22;1679;50.392;8.008;2022-11-15T15:57:17;11.30;99.90
3334;DHT22;1679;50.392;8.008;2022-11-15T15:59:43;11.30;99.90
3334;DHT22;1679;50.392;8.008;2022-11-15T16:02:11;11.30;99.90
3334;DHT22;1679;50.392;8.008;2022-11-15T16:04:37;11.30;99.90
3334;DHT22;1679;50.392;8.008;2022-11-15T16:07:03;11.20;99.90
3334;DHT22;1679;50.392;8.008;2022-11-15T16:09:29;11.20;99.90
3334;DHT22;1679;50.392;8.008;2022-11-15T16:12:14;11.10;99.90
3334;DHT22;1679;50.392;8.008;2022-11-15T16:14:41;11.10;99.90
3334;DHT22;1679;50.392;8.008;2022-11-15T16:17:19;11.10;99.90
3334;DHT22;1679;50.392;8.008;2022-11-15T16:19:45;11.10;99.90
3334;DHT22;1679;50.392;8.008;2022-11-15T16:22:10;11.10;99.90
3334;DHT22;1679;50.392;8.008;2022-11-15T16:24:36;11.10;99.90
3334;DHT22;1679;50.392;8.008;2022-11-15T16:27:01;11.10;99.90
3334;DHT22;1679;50.392;8.008;2022-11-15T16:29:27;11.10;99.90
3334;DHT22;1679;50.392;8.008;2022-11-15T16:31:53;11.00;99.90
3334;DHT22;1679;50.392;8.008;2022-11-15T16:34:19;11.00;99.90
3334;DHT22;1679;50.392;8.008;2022-11-15T16:36:44;11.00;99.90
3334;DHT22;1679;50.392;8.008;2022-11-15T16:39:11;11.00;99.90
3334;DHT22;1679;50.392;8.008;2022-11-15T16:41:38;11.10;99.90
3334;DHT22;1679;50.392;8.008;2022-11-15T16:44:04;11.10;99.90
3334;DHT22;1679;50.392;8.008;2022-11-15T16:46:30;11.10;99.90
3334;DHT22;1679;50.392;8.008;2022-11-15T16:48:56;11.00;99.90
3334;DHT22;1679;50.392;8.008;2022-11-15T16:51:22;11.10;99.90
3334;DHT22;1679;50.392;8.008;2022-11-15T16:53:47;11.10;99.90
3334;DHT22;1679;50.392;8.008;2022-11-15T16:56:26;11.00;99.90
3334;DHT22;1679;50.392;8.008;2022-11-15T16:58:56;11.00;99.90
3334;DHT22;1679;50.392;8.008;2022-11-15T17:01:34;10.90;99.90
3334;DHT22;1679;50.392;8.008;2022-11-15T17:04:19;10.90;99.90
3334;DHT22;1679;50.392;8.008;2022-11-15T17:06:47;10.90;99.90
3334;DHT22;1679;50.392;8.008;2022-11-15T17:09:18;10.90;99.90
3334;DHT22;1679;50.392;8.008;2022-11-15T17:11:44;10.90;99.90
3334;DHT22;1679;50.392;8.008;2022-11-15T17:14:10;11.00;99.90
3334;DHT22;1679;50.392;8.008;2022-11-15T17:16:37;11.00;99.90
3334;DHT22;1679;50.392;8.008;2022-11-15T17:19:13;11.00;99.90
3334;DHT22;1679;50.392;8.008;2022-11-15T17:21:39;10.90;99.90
3334;DHT22;1679;50.392;8.008;2022-11-15T17:24:05;11.00;99.90
3334;DHT22;1679;50.392;8.008;2022-11-15T17:26:30;10.90;99.90
3334;DHT22;1679;50.392;8.008;2022-11-15T17:28:56;10.90;99.90
3334;DHT22;1679;50.392;8.008;2022-11-15T17:31:22;10.90;99.90
3334;DHT22;1679;50.392;8.008;2022-11-15T17:33:47;10.80;99.90
3334;DHT22;1679;50.392;8.008;2022-11-15T17:36:13;10.80;99.90
3334;DHT22;1679;50.392;8.008;2022-11-15T17:38:41;10.80;99.90
3334;DHT22;1679;50.392;8.008;2022-11-15T17:41:14;10.70;99.90
3334;DHT22;1679;50.392;8.008;2022-11-15T17:43:40;10.80;99.90
3334;DHT22;1679;50.392;8.008;2022-11-15T17:46:14;10.80;99.90
3334;DHT22;1679;50.392;8.008;2022-11-15T17:48:40;10.70;99.90
3334;DHT22;1679;50.392;8.008;2022-11-15T17:51:08;10.70;99.90
3334;DHT22;1679;50.392;8.008;2022-11-15T17:53:37;10.70;99.90
3334;DHT22;1679;50.392;8.008;2022-11-15T17:56:11;10.60;99.90
3334;DHT22;1679;50.392;8.008;2022-11-15T17:58:38;10.60;99.90
3334;DHT22;1679;50.392;8.008;2022-11-15T18:01:27;10.60;99.90
3334;DHT22;1679;50.392;8.008;2022-11-15T18:03:54;10.60;99.90
3334;DHT22;1679;50.392;8.008;2022-11-15T18:06:21;10.70;99.90
3334;DHT22;1679;50.392;8.008;2022-11-15T18:08:48;10.80;99.90
3334;DHT22;1679;50.392;8.008;2022-11-15T18:11:17;10.90;99.90
3334;DHT22;1679;50.392;8.008;2022-11-15T18:13:44;11.00;99.90
3334;DHT22;1679;50.392;8.008;2022-11-15T18:16:16;11.00;99.90
3334;DHT22;1679;50.392;8.008;2022-11-15T18:18:42;11.00;99.90